Time;durP1;ratioP1;P1;durP2;ratioP2;P2;SDS_P1;SDS_P2;PMS_P1;PMS_P2;Temp;Humidity;BMP_temperature;BMP_pressure;BME280_temperature;BME280_humidity;BME280_pressure;Samples;Min_cycle;Max_cycle;Signal;HPM_P1;HPM_P2
2022/11/20 00:01:21;;;;;;;;;;;;;;;-144.99;92.90;52590.78;5031592;28;20006;-66
2022/11/20 00:03:47;;;;;;;;;;;;;;;-144.99;92.83;52594.84;5030427;28;19966;-66
2022/11/20 00:06:15;;;;;;;;;;;;;;;-144.99;93.64;52607.09;5031400;28;20388;-66
2022/11/20 00:08:41;;;;;;;;;;;;;;;-144.99;93.69;52639.69;5030297;28;19982;-65
2022/11/20 00:11:09;;;;;;;;;;;;;;;-144.99;93.80;52651.94;5030793;28;20480;-65
2022/11/20 00:13:37;;;;;;;;;;;;;;;-144.99;93.55;52598.94;5035101;28;20482;-66
2022/11/20 00:16:05;;;;;;;;;;;;;;;-144.99;93.96;52619.31;5039253;28;20571;-66
2022/11/20 00:18:31;;;;;;;;;;;;;;;-144.99;93.75;52582.63;5030461;28;20006;-66
2022/11/20 00:21:01;;;;;;;;;;;;;;;-144.99;93.83;52598.94;5030400;28;20066;-66
2022/11/20 00:23:27;;;;;;;;;;;;;;;-144.99;93.26;52590.78;5030438;28;19960;-66
2022/11/20 00:25:55;;;;;;;;;;;;;;;-144.99;93.45;52598.94;5030577;28;20053;-66
2022/11/20 00:28:22;;;;;;;;;;;;;;;-144.99;93.42;52598.94;5028820;28;20462;-64
2022/11/20 00:30:50;;;;;;;;;;;;;;;-144.99;93.38;52629.50;5029413;28;20004;-64
2022/11/20 00:33:16;;;;;;;;;;;;;;;-144.99;93.66;52582.63;5029054;28;19949;-64
2022/11/20 00:35:43;;;;;;;;;;;;;;;-144.99;93.21;52582.63;5035038;28;19949;-64
2022/11/20 00:38:09;;;;;;;;;;;;;;;-144.99;92.97;52586.69;5041776;28;20102;-64
2022/11/20 00:40:36;;;;;;;;;;;;;;;-144.99;92.91;52645.81;5035386;28;20497;-64
2022/11/20 00:43:02;;;;;;;;;;;;;;;-144.99;93.00;52594.84;5028747;28;19948;-66
2022/11/20 00:45:29;;;;;;;;;;;;;;;-144.99;92.88;52603.00;5029824;28;19956;-70
2022/11/20 00:47:56;;;;;;;;;;;;;;;-144.99;92.96;52594.84;5038260;28;19944;-67
2022/11/20 00:50:23;;;;;;;;;;;;;;;-144.99;93.40;52588.75;5030334;28;20072;-70
2022/11/20 00:52:49;;;;;;;;;;;;;;;-144.99;93.36;52603.00;5039233;28;19949;-70
2022/11/20 00:55:16;;;;;;;;;;;;;;;-144.99;93.61;52621.34;5029092;28;20405;-71
2022/11/20 00:57:42;;;;;;;;;;;;;;;-144.99;94.06;52605.03;5029175;28;20123;-71
2022/11/20 01:00:09;;;;;;;;;;;;;;;-144.99;94.36;52576.50;5029464;28;19981;-71
2022/11/20 01:02:36;;;;;;;;;;;;;;;-144.99;94.16;52615.25;5028824;28;20498;-71
2022/11/20 01:05:04;;;;;;;;;;;;;;;-144.99;94.31;52605.03;5029264;28;20073;-71
2022/11/20 01:07:30;;;;;;;;;;;;;;;-144.99;94.44;52603.00;5028843;28;20449;-71
2022/11/20 01:09:57;;;;;;;;;;;;;;;-144.99;94.46;52600.97;5029099;28;20019;-71
2022/11/20 01:12:23;;;;;;;;;;;;;;;-144.99;95.22;52545.94;5028902;28;20248;-71
2022/11/20 01:14:52;;;;;;;;;;;;;;;-144.99;95.60;52584.66;5028460;28;20357;-72
2022/11/20 01:17:18;;;;;;;;;;;;;;;-144.99;94.97;52566.31;5029102;28;20396;-72
2022/11/20 01:19:45;;;;;;;;;;;;;;;-144.99;94.92;52560.19;5028750;28;20312;-72
2022/11/20 01:22:12;;;;;;;;;;;;;;;-144.99;95.26;52570.38;5029026;28;20007;-72
2022/11/20 01:24:39;;;;;;;;;;;;;;;-144.99;95.28;52619.31;5037673;28;20038;-72
2022/11/20 01:27:05;;;;;;;;;;;;;;;-144.99;95.49;52611.16;5040219;28;20430;-70
2022/11/20 01:29:32;;;;;;;;;;;;;;;-144.99;95.54;52580.59;5030649;28;19987;-72
2022/11/20 01:31:58;;;;;;;;;;;;;;;-144.99;95.55;52578.53;5031040;28;19961;-72
2022/11/20 01:34:25;;;;;;;;;;;;;;;-144.99;96.66;52631.53;5028723;28;19991;-72
2022/11/20 01:36:52;;;;;;;;;;;;;;;-144.99;97.64;52574.47;5038303;28;20474;-72
2022/11/20 01:39:21;;;;;;;;;;;;;;;-144.99;97.60;52611.16;5041648;28;20088;-72
2022/11/20 01:44:48;;;;;;;;;;;;;;;-144.99;98.54;52619.31;5032216;28;20010;-67
2022/11/20 01:47:16;;;;;;;;;;;;;;;-144.99;98.52;52566.31;5036628;28;19973;-66
2022/11/20 01:49:46;;;;;;;;;;;;;;;-144.99;98.86;52615.25;5032305;28;19992;-67
2022/11/20 01:52:16;;;;;;;;;;;;;;;-144.99;98.87;52627.47;5038682;28;20503;-67
2022/11/20 01:54:47;;;;;;;;;;;;;;;-144.99;99.02;52586.69;5034750;28;19974;-66
2022/11/20 01:57:14;;;;;;;;;;;;;;;-144.99;99.55;52643.78;5032708;28;20102;-65
2022/11/20 01:59:45;;;;;;;;;;;;;;;-144.99;99.34;52627.47;5031874;28;20483;-65
2022/11/20 02:02:12;;;;;;;;;;;;;;;-144.99;99.43;52607.09;5031660;28;20450;-65
2022/11/20 02:04:38;;;;;;;;;;;;;;;-144.99;99.38;52598.94;5032464;28;20011;-66
2022/11/20 02:07:06;;;;;;;;;;;;;;;-144.99;99.36;52607.09;5032674;28;19949;-67
2022/11/20 02:09:32;;;;;;;;;;;;;;;-144.99;99.38;52588.75;5031718;28;20016;-66
2022/11/20 02:12:01;;;;;;;;;;;;;;;-144.99;99.46;52598.94;5024444;28;20002;-65
2022/11/20 02:14:27;;;;;;;;;;;;;;;-144.99;99.57;52611.16;5029689;28;19986;-65
2022/11/20 02:16:55;;;;;;;;;;;;;;;-144.99;99.55;52611.16;5034343;28;19959;-65
2022/11/20 02:19:24;;;;;;;;;;;;;;;-144.99;100.00;52582.63;5032100;28;20041;-67
2022/11/20 02:21:55;;;;;;;;;;;;;;;-144.99;99.77;52596.88;5032148;28;20098;-67
2022/11/20 02:24:23;;;;;;;;;;;;;;;-144.99;99.52;52607.09;5031679;28;19969;-68
2022/11/20 02:26:52;;;;;;;;;;;;;;;-144.99;99.49;52598.94;5031646;28;20003;-68
2022/11/20 02:29:20;;;;;;;;;;;;;;;-144.99;99.73;52562.25;5031140;28;20059;-69
2022/11/20 02:31:47;;;;;;;;;;;;;;;-144.99;99.90;52627.47;5031566;28;20053;-68
2022/11/20 02:34:13;;;;;;;;;;;;;;;-144.99;99.77;52578.53;5031722;28;19989;-68
2022/11/20 02:36:41;;;;;;;;;;;;;;;-144.99;100.00;52594.84;5041181;28;20005;-68
2022/11/20 02:39:08;;;;;;;;;;;;;;;-144.99;99.99;52611.16;5040669;28;19979;-68
2022/11/20 02:41:36;;;;;;;;;;;;;;;-144.99;100.00;52603.00;5036078;28;20005;-68
2022/11/20 02:44:03;;;;;;;;;;;;;;;-144.99;100.00;52603.00;5031740;28;20016;-69
2022/11/20 02:46:30;;;;;;;;;;;;;;;-144.99;99.90;52574.47;5035813;28;20058;-68
2022/11/20 02:48:57;;;;;;;;;;;;;;;-144.99;99.99;52582.63;5038054;28;20056;-69
2022/11/20 02:51:23;;;;;;;;;;;;;;;-144.99;100.00;52603.00;5029906;28;20121;-70
2022/11/20 02:53:50;;;;;;;;;;;;;;;-144.99;100.00;52603.00;5040903;28;19989;-70
2022/11/20 02:56:17;;;;;;;;;;;;;;;-144.99;100.00;52562.25;5032466;28;20206;-68
2022/11/20 02:58:44;;;;;;;;;;;;;;;-144.99;100.00;52574.47;5031597;28;20402;-70
2022/11/20 03:01:11;;;;;;;;;;;;;;;-144.99;100.00;52627.47;5030876;28;20052;-69
2022/11/20 03:03:37;;;;;;;;;;;;;;;-144.99;100.00;52607.09;5031160;28;19972;-69
2022/11/20 03:06:04;;;;;;;;;;;;;;;-144.99;100.00;52631.53;5030812;28;20035;-70
2022/11/20 03:08:31;;;;;;;;;;;;;;;-144.99;100.00;52578.53;5030842;28;19947;-68
2022/11/20 03:10:57;;;;;;;;;;;;;;;-144.99;100.00;52615.25;5030678;28;20409;-70
2022/11/20 03:13:25;;;;;;;;;;;;;;;-144.99;100.00;52594.84;5031960;28;20001;-70
2022/11/20 03:15:53;;;;;;;;;;;;;;;-144.99;100.00;52578.53;5038333;28;19999;-70
2022/11/20 03:18:20;;;;;;;;;;;;;;;-144.99;100.00;52578.53;5033242;28;20058;-68
2022/11/20 03:20:46;;;;;;;;;;;;;;;-144.99;100.00;52627.47;5030751;28;20028;-68
2022/11/20 03:23:13;;;;;;;;;;;;;;;-144.99;100.00;52590.78;5037769;28;20047;-68
2022/11/20 03:25:39;;;;;;;;;;;;;;;-144.99;100.00;52590.78;5040424;28;19960;-68
2022/11/20 03:28:05;;;;;;;;;;;;;;;-144.99;100.00;52594.84;5031767;28;19976;-66
2022/11/20 03:30:32;;;;;;;;;;;;;;;-144.99;100.00;52576.50;5031384;28;19996;-63
2022/11/20 03:33:00;;;;;;;;;;;;;;;-144.99;100.00;52574.47;5030113;28;19951;-63
2022/11/20 03:35:26;;;;;;;;;;;;;;;-144.99;100.00;52584.66;5032943;28;20031;-63
2022/11/20 03:37:53;;;;;;;;;;;;;;;-144.99;100.00;52578.53;5045095;28;19946;-64
2022/11/20 03:40:19;;;;;;;;;;;;;;;-144.99;100.00;52619.31;5037200;28;19981;-63
2022/11/20 03:42:46;;;;;;;;;;;;;;;-144.99;100.00;52554.09;5029501;28;19987;-63
2022/11/20 03:45:14;;;;;;;;;;;;;;;-144.99;100.00;52584.66;5030097;28;20020;-63
2022/11/20 03:47:40;;;;;;;;;;;;;;;-144.99;100.00;52603.00;5033983;28;19949;-67
2022/11/20 03:50:08;;;;;;;;;;;;;;;-144.99;100.00;52619.31;5030953;28;20001;-67
2022/11/20 03:52:35;;;;;;;;;;;;;;;-144.99;100.00;52586.69;5040178;28;20005;-68
2022/11/20 03:55:01;;;;;;;;;;;;;;;-144.99;100.00;52609.13;5030099;28;19987;-66
2022/11/20 03:57:28;;;;;;;;;;;;;;;-144.99;100.00;52578.53;5029661;28;20412;-66
2022/11/20 03:59:54;;;;;;;;;;;;;;;-144.99;100.00;52590.78;5029871;28;20175;-67
2022/11/20 04:02:21;;;;;;;;;;;;;;;-144.99;100.00;52586.69;5029014;28;20046;-66
2022/11/20 04:04:47;;;;;;;;;;;;;;;-144.99;100.00;52603.00;5030482;28;20082;-66
2022/11/20 04:07:15;;;;;;;;;;;;;;;-144.99;100.00;52590.78;5029917;28;19997;-66
2022/11/20 04:09:42;;;;;;;;;;;;;;;-144.99;100.00;52605.03;5029742;28;20261;-66
2022/11/20 04:12:08;;;;;;;;;;;;;;;-144.99;100.00;52609.13;5029249;28;20005;-65
2022/11/20 04:14:34;;;;;;;;;;;;;;;-144.99;100.00;52600.97;5034456;28;20372;-64
2022/11/20 04:17:01;;;;;;;;;;;;;;;-144.99;100.00;52598.94;5033589;28;20058;-65
2022/11/20 04:19:27;;;;;;;;;;;;;;;-144.99;100.00;52586.69;5030242;28;20268;-65
2022/11/20 04:21:54;;;;;;;;;;;;;;;-144.99;100.00;52582.63;5030632;28;19962;-65
2022/11/20 04:24:22;;;;;;;;;;;;;;;-144.99;100.00;52598.94;5029916;28;20034;-65
2022/11/20 04:26:48;;;;;;;;;;;;;;;-144.99;100.00;52572.44;5029455;28;20362;-65
2022/11/20 04:29:15;;;;;;;;;;;;;;;-144.99;100.00;52623.38;5028831;28;20012;-65
2022/11/20 04:31:41;;;;;;;;;;;;;;;-144.99;100.00;52611.16;5029048;28;19997;-65
2022/11/20 04:34:08;;;;;;;;;;;;;;;-144.99;100.00;52598.94;5029320;28;19951;-66
2022/11/20 04:36:34;;;;;;;;;;;;;;;-144.99;100.00;52554.09;5038403;28;20045;-68
2022/11/20 04:39:02;;;;;;;;;;;;;;;-144.99;100.00;52556.13;5037219;28;19952;-68
2022/11/20 04:41:31;;;;;;;;;;;;;;;-144.99;100.00;52615.25;5023547;28;19984;-67
2022/11/20 04:44:02;;;;;;;;;;;;;;;-144.99;100.00;52598.94;5028906;28;19985;-68
2022/11/20 04:46:29;;;;;;;;;;;;;;;-144.99;100.00;52578.53;5033661;28;19956;-64
2022/11/20 04:48:56;;;;;;;;;;;;;;;-144.99;100.00;52586.69;5035548;28;20424;-64
2022/11/20 04:51:23;;;;;;;;;;;;;;;-144.99;100.00;52623.38;5029168;28;20270;-63
2022/11/20 04:53:49;;;;;;;;;;;;;;;-144.99;100.00;52578.53;5038702;28;20449;-63
2022/11/20 04:56:16;;;;;;;;;;;;;;;-144.99;100.00;52613.19;5029325;28;19956;-65
2022/11/20 04:58:44;;;;;;;;;;;;;;;-144.99;100.00;52590.78;5028702;28;20236;-65
2022/11/20 05:01:12;;;;;;;;;;;;;;;-144.99;100.00;52598.94;5028687;28;20410;-67
2022/11/20 05:03:38;;;;;;;;;;;;;;;-144.99;100.00;52611.16;5029130;28;19991;-68
2022/11/20 05:06:06;;;;;;;;;;;;;;;-144.99;100.00;52562.25;5029499;28;20010;-66
2022/11/20 05:08:33;;;;;;;;;;;;;;;-144.99;100.00;52607.09;5028275;28;19975;-67
2022/11/20 05:11:02;;;;;;;;;;;;;;;-144.99;100.00;52586.69;5028919;28;20002;-67
2022/11/20 05:13:29;;;;;;;;;;;;;;;-144.99;100.00;52590.78;5027526;28;19952;-67
2022/11/20 05:16:01;;;;;;;;;;;;;;;-144.99;100.00;52572.44;5028714;28;19992;-67
2022/11/20 05:18:28;;;;;;;;;;;;;;;-144.99;100.00;52603.00;5028835;28;19969;-67
2022/11/20 05:20:55;;;;;;;;;;;;;;;-144.99;100.00;52590.78;5028745;28;20062;-67
2022/11/20 05:23:22;;;;;;;;;;;;;;;-144.99;100.00;52603.00;5038614;28;20007;-67
2022/11/20 05:25:48;;;;;;;;;;;;;;;-144.99;100.00;52594.84;5037484;28;20003;-67
2022/11/20 05:28:15;;;;;;;;;;;;;;;-144.99;100.00;52603.00;5033873;28;19981;-68
2022/11/20 05:30:41;;;;;;;;;;;;;;;-144.99;100.00;52574.47;5030110;28;20021;-65
2022/11/20 05:33:10;;;;;;;;;;;;;;;-144.99;100.00;52564.28;5028884;28;20016;-68
2022/11/20 05:35:36;;;;;;;;;;;;;;;-144.99;100.00;52631.53;5046048;22;19960;-72
2022/11/20 05:38:03;;;;;;;;;;;;;;;-144.99;100.00;52619.31;5035901;28;19946;-71
2022/11/20 05:40:29;;;;;;;;;;;;;;;-144.99;100.00;52615.25;5038474;28;19987;-72
2022/11/20 05:42:55;;;;;;;;;;;;;;;-144.99;100.00;52590.78;5031164;28;20005;-72
2022/11/20 05:45:22;;;;;;;;;;;;;;;-144.99;100.00;52574.47;5031272;28;20004;-72
2022/11/20 05:47:48;;;;;;;;;;;;;;;-144.99;100.00;52656.00;5034247;28;20426;-72
2022/11/20 05:50:16;;;;;;;;;;;;;;;-144.99;100.00;52578.53;5031018;28;20469;-72
2022/11/20 05:52:43;;;;;;;;;;;;;;;-144.99;100.00;52541.84;5040855;28;19985;-72
2022/11/20 05:55:09;;;;;;;;;;;;;;;-144.99;100.00;52607.09;5030463;28;19965;-72
2022/11/20 05:57:36;;;;;;;;;;;;;;;-144.99;100.00;52554.09;5031067;28;20038;-71
2022/11/20 06:00:03;;;;;;;;;;;;;;;-144.99;100.00;52594.84;5031840;28;20446;-72
2022/11/20 06:02:30;;;;;;;;;;;;;;;-144.99;100.00;52582.63;5031994;28;19998;-72
2022/11/20 06:04:56;;;;;;;;;;;;;;;-144.99;100.00;52586.69;5032877;28;20027;-75
2022/11/20 06:07:24;;;;;;;;;;;;;;;-144.99;100.00;52631.53;5040672;28;19969;-76
2022/11/20 06:09:52;;;;;;;;;;;;;;;-144.99;100.00;52592.81;5038906;28;19953;-75
2022/11/20 06:12:18;;;;;;;;;;;;;;;-144.99;100.00;52607.09;5034576;28;19943;-75
2022/11/20 06:14:45;;;;;;;;;;;;;;;-144.99;100.00;52558.16;5036424;28;20007;-76
2022/11/20 06:17:11;;;;;;;;;;;;;;;-144.99;100.00;52594.84;5040293;28;19998;-76
2022/11/20 06:19:37;;;;;;;;;;;;;;;-144.99;100.00;52603.00;5036918;28;19985;-75
2022/11/20 06:22:04;;;;;;;;;;;;;;;-144.99;100.00;52529.63;5036531;28;19953;-75
2022/11/20 06:24:32;;;;;;;;;;;;;;;-144.99;100.00;52598.94;5037305;28;19949;-76
2022/11/20 06:26:58;;;;;;;;;;;;;;;-144.99;100.00;52582.63;5039485;28;20004;-76
2022/11/20 06:29:25;;;;;;;;;;;;;;;-144.99;100.00;52590.78;5035646;28;19976;-75
2022/11/20 06:31:51;;;;;;;;;;;;;;;-144.99;100.00;52560.19;5038724;28;19966;-75
2022/11/20 06:34:18;;;;;;;;;;;;;;;-144.99;100.00;52543.91;5040977;28;19948;-74
2022/11/20 06:36:44;;;;;;;;;;;;;;;-144.99;100.00;52552.03;5049359;28;20410;-75
2022/11/20 06:39:10;;;;;;;;;;;;;;;-144.99;100.00;52596.88;5048252;28;19982;-75
2022/11/20 06:41:38;;;;;;;;;;;;;;;-144.99;100.00;52576.50;5039546;28;20416;-75
2022/11/20 06:44:05;;;;;;;;;;;;;;;-144.99;100.00;52578.53;5037364;28;19954;-72
2022/11/20 06:46:32;;;;;;;;;;;;;;;-144.99;100.00;52613.19;5035052;28;20508;-72
2022/11/20 06:48:58;;;;;;;;;;;;;;;-144.99;100.00;52568.34;5034213;28;19992;-72
2022/11/20 06:51:25;;;;;;;;;;;;;;;-144.99;100.00;52615.25;5035166;28;19958;-71
2022/11/20 06:53:51;;;;;;;;;;;;;;;-144.99;100.00;52574.47;5023369;28;19996;-72
2022/11/20 06:56:18;;;;;;;;;;;;;;;-144.99;100.00;52554.09;5034288;28;20004;-71
2022/11/20 06:58:46;;;;;;;;;;;;;;;-144.99;100.00;52564.28;5034198;28;20084;-72
2022/11/20 07:01:13;;;;;;;;;;;;;;;-144.99;100.00;52586.69;5035376;28;19989;-72
2022/11/20 07:03:43;;;;;;;;;;;;;;;-144.99;100.00;52578.53;5034705;28;20035;-72
2022/11/20 07:06:09;;;;;;;;;;;;;;;-144.99;100.00;52562.25;5030348;28;19976;-73
2022/11/20 07:08:36;;;;;;;;;;;;;;;-144.99;100.00;52611.16;5033459;28;19969;-71
2022/11/20 07:11:03;;;;;;;;;;;;;;;-144.99;100.00;52586.69;5034218;28;19949;-71
2022/11/20 07:13:30;;;;;;;;;;;;;;;-144.99;100.00;52592.81;5031122;28;19999;-73
2022/11/20 07:16:01;;;;;;;;;;;;;;;-144.99;100.00;52607.09;5032849;28;20422;-73
2022/11/20 07:18:28;;;;;;;;;;;;;;;-144.99;100.00;52574.47;5032834;28;19943;-75
2022/11/20 07:20:55;;;;;;;;;;;;;;;-144.99;100.00;52578.53;5035430;28;19988;-74
2022/11/20 07:23:22;;;;;;;;;;;;;;;-144.99;100.00;52558.16;5036219;28;19942;-76
2022/11/20 07:25:48;;;;;;;;;;;;;;;-144.99;100.00;52566.31;5042776;28;19958;-75
2022/11/20 07:28:15;;;;;;;;;;;;;;;-144.99;100.00;52598.94;5035966;28;20011;-76
2022/11/20 07:30:41;;;;;;;;;;;;;;;-144.99;100.00;52550.00;5036171;28;19995;-76
2022/11/20 07:33:09;;;;;;;;;;;;;;;-144.99;100.00;52574.47;5034238;28;20019;-75
2022/11/20 07:35:35;;;;;;;;;;;;;;;-144.99;100.00;52570.38;5038643;28;20053;-74
2022/11/20 07:38:02;;;;;;;;;;;;;;;-144.99;100.00;52594.84;5039055;28;20042;-74
2022/11/20 07:40:28;;;;;;;;;;;;;;;-144.99;100.00;52566.31;5034173;28;20033;-75
2022/11/20 07:42:56;;;;;;;;;;;;;;;-144.99;100.00;52566.31;5031776;28;20017;-76
2022/11/20 07:45:23;;;;;;;;;;;;;;;-144.99;100.00;52533.69;5033685;28;19966;-75
2022/11/20 07:47:49;;;;;;;;;;;;;;;-144.99;100.00;52550.00;5036393;28;20022;-75
2022/11/20 07:50:17;;;;;;;;;;;;;;;-144.99;100.00;52574.47;5032873;28;20004;-74
2022/11/20 07:52:44;;;;;;;;;;;;;;;-144.99;100.00;52607.09;5039622;28;20469;-74
2022/11/20 07:55:10;;;;;;;;;;;;;;;-144.99;100.00;52582.63;5034923;28;19957;-74
2022/11/20 07:57:37;;;;;;;;;;;;;;;-144.99;100.00;52586.69;5030302;28;20001;-73
2022/11/20 08:00:04;;;;;;;;;;;;;;;-144.99;100.00;52564.28;5033284;28;19950;-73
2022/11/20 08:02:30;;;;;;;;;;;;;;;-144.99;100.00;52586.69;5033602;28;19938;-72
2022/11/20 08:04:57;;;;;;;;;;;;;;;-144.99;100.00;52539.81;5032527;28;20002;-72
2022/11/20 08:07:24;;;;;;;;;;;;;;;-144.99;100.00;52574.47;5031499;28;20050;-72
2022/11/20 08:09:51;;;;;;;;;;;;;;;-144.99;100.00;52578.53;5032281;28;20390;-73
2022/11/20 08:15:02;;;;;;;;;;;;;;;-144.99;100.00;52586.69;5046187;28;20379;-72
2022/11/20 08:17:29;;;;;;;;;;;;;;;-144.99;100.00;52603.00;5030436;28;20413;-72
2022/11/20 08:19:55;;;;;;;;;;;;;;;-144.99;100.00;52550.00;5032303;28;20431;-73
2022/11/20 08:22:22;;;;;;;;;;;;;;;-144.99;100.00;52562.25;5030311;28;20343;-74
2022/11/20 08:24:52;;;;;;;;;;;;;;;-144.99;100.00;52598.94;5030636;28;21304;-75
2022/11/20 08:27:18;;;;;;;;;;;;;;;-144.99;100.00;52545.94;5034380;28;19995;-74
2022/11/20 08:29:45;;;;;;;;;;;;;;;-144.99;100.00;52533.69;5033429;28;19964;-74
2022/11/20 08:32:11;;;;;;;;;;;;;;;-144.99;100.00;52564.28;5035607;28;20002;-74
2022/11/20 08:34:38;;;;;;;;;;;;;;;-144.99;100.00;52578.53;5032650;28;19964;-74
2022/11/20 08:37:04;;;;;;;;;;;;;;;-144.99;100.00;52578.53;5030983;28;19946;-74
2022/11/20 08:39:30;;;;;;;;;;;;;;;-144.99;100.00;52533.69;5044416;28;19991;-74
2022/11/20 08:41:58;;;;;;;;;;;;;;;-144.99;100.00;52570.38;5032085;28;19996;-74
2022/11/20 08:44:25;;;;;;;;;;;;;;;-144.99;100.00;52521.47;5030029;28;19992;-73
2022/11/20 08:46:51;;;;;;;;;;;;;;;-144.99;100.00;52590.78;5038291;28;19988;-73
2022/11/20 08:49:18;;;;;;;;;;;;;;;-144.99;100.00;52560.19;5026279;28;19995;-74
2022/11/20 08:51:45;;;;;;;;;;;;;;;-144.99;100.00;52574.47;5033634;28;19983;-74
2022/11/20 08:54:11;;;;;;;;;;;;;;;-144.99;100.00;52529.63;5037082;28;19948;-74
2022/11/20 08:56:38;;;;;;;;;;;;;;;-144.99;100.00;52545.94;5036130;28;20025;-74
2022/11/20 08:59:05;;;;;;;;;;;;;;;-144.99;100.00;52574.47;5034934;28;19960;-74
2022/11/20 09:01:32;;;;;;;;;;;;;;;-144.99;100.00;52592.81;5043554;28;19990;-73
2022/11/20 09:03:59;;;;;;;;;;;;;;;-144.99;100.00;52554.09;5049452;28;19955;-74
2022/11/20 09:06:26;;;;;;;;;;;;;;;-144.99;100.00;52568.34;5039691;28;19971;-73
2022/11/20 09:08:53;;;;;;;;;;;;;;;-144.99;100.00;52570.38;5044802;28;20462;-73
2022/11/20 09:11:19;;;;;;;;;;;;;;;-144.99;100.00;52582.63;5048880;28;20427;-75
2022/11/20 09:13:46;;;;;;;;;;;;;;;-144.99;100.00;52543.91;5051346;28;19940;-74
2022/11/20 09:16:14;;;;;;;;;;;;;;;-144.99;100.00;52515.34;5051542;28;20503;-74
2022/11/20 09:18:40;;;;;;;;;;;;;;;-144.99;96.94;52527.59;5049993;28;19951;-74
2022/11/20 09:21:07;;;;;;;;;;;;;;;-144.99;96.68;52517.41;5050420;28;19957;-74
2022/11/20 09:23:36;;;;;;;;;;;;;;;-144.99;89.65;52545.94;5053121;28;19935;-75
2022/11/20 09:26:03;;;;;;;;;;;;;;;-144.99;86.18;52529.63;5050579;28;19966;-73
2022/11/20 09:28:30;;;;;;;;;;;;;;;-144.99;81.71;52517.41;5051299;28;19980;-75
2022/11/20 09:30:57;;;;;;;;;;;;;;;-144.99;76.09;52521.47;5051617;28;19954;-75
2022/11/20 09:33:24;;;;;;;;;;;;;;;-144.99;73.33;52484.78;5051331;28;19948;-74
2022/11/20 09:35:51;;;;;;;;;;;;;;;-144.99;73.21;52511.28;5051033;28;19984;-75
2022/11/20 09:38:17;;;;;;;;;;;;;;;-144.99;73.21;52558.16;5055175;28;19966;-73
2022/11/20 09:40:46;;;;;;;;;;;;;;;-144.99;74.00;52505.16;5056851;28;19956;-75
2022/11/20 09:43:16;;;;;;;;;;;;;;;-144.99;75.26;52554.09;5041602;28;19995;-73
2022/11/20 09:45:53;;;;;;;;;;;;;;;-144.99;76.87;52554.09;5043673;28;19963;-73
2022/11/20 09:48:26;;;;;;;;;;;;;;;-144.99;77.40;52533.69;5040408;28;19961;-76
2022/11/20 09:50:56;;;;;;;;;;;;;;;-144.99;78.09;52541.84;5038138;28;20013;-76
2022/11/20 09:53:29;;;;;;;;;;;;;;;-144.99;78.25;52550.00;5044319;28;20071;-76
2022/11/20 09:55:56;;;;;;;;;;;;;;;-144.99;78.02;52527.59;5031457;28;20173;-76
2022/11/20 09:58:29;;;;;;;;;;;;;;;-144.99;77.27;52541.84;5036334;28;20044;-77
2022/11/20 10:00:58;;;;;;;;;;;;;;;-144.99;77.66;52533.69;5037988;28;20002;-76
2022/11/20 10:03:30;;;;;;;;;;;;;;;-144.99;77.64;52521.47;4338110;28;10000716;-75
2022/11/20 10:06:00;;;;;;;;;;;;;;;-144.99;75.31;52488.84;5030682;28;20020;-75
2022/11/20 10:08:30;;;;;;;;;;;;;;;-144.99;74.41;52484.78;5031683;28;20076;-75
2022/11/20 10:11:01;;;;;;;;;;;;;;;-144.99;66.96;52476.63;5030743;28;20008;-75
2022/11/20 10:13:33;;;;;;;;;;;;;;;-144.99;64.96;52497.00;5021593;28;19950;-74
2022/11/20 10:16:10;;;;;;;;;;;;;;;-144.99;62.45;52513.31;5029567;28;20016;-74
2022/11/20 10:18:45;;;;;;;;;;;;;;;-144.99;62.75;52521.47;5031186;28;19955;-75
2022/11/20 10:21:19;;;;;;;;;;;;;;;-144.99;63.74;52543.91;5031489;28;19956;-75
2022/11/20 10:23:57;;;;;;;;;;;;;;;-144.99;66.36;52558.16;5041769;28;20158;-74
2022/11/20 10:26:29;;;;;;;;;;;;;;;-144.99;68.92;52541.84;5041866;28;19977;-73
2022/11/20 10:29:02;;;;;;;;;;;;;;;-144.99;70.57;52562.25;5042129;28;19992;-74
2022/11/20 10:31:32;;;;;;;;;;;;;;;-144.99;71.85;52513.31;5043085;28;19998;-74
2022/11/20 10:33:59;;;;;;;;;;;;;;;-144.99;72.77;52556.13;5043981;28;19955;-75
2022/11/20 10:36:29;;;;;;;;;;;;;;;-144.99;73.28;52562.25;5044327;28;20022;-75
2022/11/20 10:39:00;;;;;;;;;;;;;;;-144.99;73.42;52541.84;5046859;28;19953;-74
2022/11/20 10:41:29;;;;;;;;;;;;;;;-144.99;74.71;52572.44;5038167;28;19951;-74
2022/11/20 10:44:02;;;;;;;;;;;;;;;-144.99;75.48;52558.16;5044267;28;19975;-74
2022/11/20 10:49:15;;;;;;;;;;;;;;;-144.99;77.17;52558.16;5024172;28;19950;-76
2022/11/20 10:51:49;;;;;;;;;;;;;;;-144.99;78.15;52554.09;5044214;28;19955;-74
2022/11/20 10:54:21;;;;;;;;;;;;;;;-144.99;78.68;52537.78;5049621;28;19950;-75
2022/11/20 10:56:49;;;;;;;;;;;;;;;-144.99;80.69;52458.28;5031992;28;20490;-74
2022/11/20 10:59:29;;;;;;;;;;;;;;;-144.99;80.17;52448.09;5041613;28;20295;-74
2022/11/20 11:01:55;;;;;;;;;;;;;;;-144.99;74.89;52501.09;5041588;28;19957;-75
2022/11/20 11:04:29;;;;;;;;;;;;;;;-144.99;68.96;52531.66;5042146;28;20512;-73
2022/11/20 11:06:59;;;;;;;;;;;;;;;-144.99;66.57;52554.09;5041906;28;20199;-74
2022/11/20 11:09:31;;;;;;;;;;;;;;;-144.99;66.80;52539.81;5042043;28;20290;-74
2022/11/20 11:11:57;;;;;;;;;;;;;;;-144.99;67.80;52484.78;5032531;28;19978;-76
2022/11/20 11:14:24;;;;;;;;;;;;;;;-144.99;68.39;52513.31;5032211;28;19961;-77
2022/11/20 11:16:51;;;;;;;;;;;;;;;-144.99;65.48;52497.00;5033624;28;19987;-76
2022/11/20 11:19:18;;;;;;;;;;;;;;;-144.99;62.38;52529.63;5032813;28;19973;-74
2022/11/20 11:21:47;;;;;;;;;;;;;;;-144.99;61.74;52501.09;5030238;28;20312;-77
2022/11/20 11:24:20;;;;;;;;;;;;;;;-144.99;62.28;52505.16;5028784;28;19994;-73
2022/11/20 11:26:52;;;;;;;;;;;;;;;-144.99;63.17;52513.31;5037912;28;20017;-73
2022/11/20 11:29:18;;;;;;;;;;;;;;;-144.99;62.90;52523.50;5028319;28;19955;-74
2022/11/20 11:31:45;;;;;;;;;;;;;;;-144.99;62.85;52541.84;5034751;28;19966;-75
2022/11/20 11:34:13;;;;;;;;;;;;;;;-144.99;62.59;52531.66;5033882;28;19946;-74
2022/11/20 11:36:39;;;;;;;;;;;;;;;-144.99;63.53;52517.41;5041040;28;20016;-76
2022/11/20 11:39:07;;;;;;;;;;;;;;;-144.99;64.64;52550.00;5038404;28;19960;-76
2022/11/20 11:41:36;;;;;;;;;;;;;;;-144.99;66.39;52468.47;5038291;28;19954;-74
2022/11/20 11:47:00;;;;;;;;;;;;;;;-144.99;61.67;52517.41;5040715;28;20364;-76
2022/11/20 11:49:26;;;;;;;;;;;;;;;-144.99;58.86;52521.47;5036799;28;19947;-73
2022/11/20 11:52:02;;;;;;;;;;;;;;;-144.99;59.56;52501.09;5053050;28;19943;-75
2022/11/20 11:54:31;;;;;;;;;;;;;;;-144.99;61.50;52521.47;5046256;28;19945;-74
2022/11/20 11:57:01;;;;;;;;;;;;;;;-144.99;63.39;52505.16;5051078;28;19944;-76
2022/11/20 11:59:29;;;;;;;;;;;;;;;-144.99;67.18;52362.50;5041539;28;20959;-76
2022/11/20 12:01:58;;;;;;;;;;;;;;;-144.99;62.60;52391.03;5034340;28;20001;-76
2022/11/20 12:04:35;;;;;;;;;;;;;;;-144.99;57.00;52446.06;5029131;28;19957;-76
2022/11/20 12:07:06;;;;;;;;;;;;;;;-144.99;53.21;52399.19;5040050;28;20005;-75
2022/11/20 12:09:36;;;;;;;;;;;;;;;-144.99;52.06;52456.25;5035360;28;20500;-75
2022/11/20 12:12:06;;;;;;;;;;;;;;;-144.99;51.43;52472.56;5019633;28;19947;-74
2022/11/20 12:14:35;;;;;;;;;;;;;;;-144.99;52.29;52423.63;5020045;28;20206;-76
2022/11/20 12:17:02;;;;;;;;;;;;;;;-144.99;52.44;52305.41;5027417;28;20410;-75
2022/11/20 12:19:30;;;;;;;;;;;;;;;-144.99;51.11;52342.09;5036586;28;20301;-75
2022/11/20 12:22:03;;;;;;;;;;;;;;;-144.99;48.56;52382.88;5031237;28;20497;-76
2022/11/20 12:24:44;;;;;;;;;;;;;;;-144.99;46.92;52374.72;5023912;28;19981;-76
2022/11/20 12:27:25;;;;;;;;;;;;;;;-144.99;46.32;52378.78;5028309;28;19995;-77
2022/11/20 12:29:57;;;;;;;;;;;;;;;-144.99;46.87;52236.13;5032361;28;19996;-77
2022/11/20 12:32:32;;;;;;;;;;;;;;;-144.99;45.56;52431.78;5040078;28;19949;-78
2022/11/20 12:35:01;;;;;;;;;;;;;;;-144.99;44.51;52419.56;5032508;28;20404;-77